sensor_id;sensor_type;location;lat;lon;timestamp;temperature;humidity
66740;DHT22;53653;52.188;8.602;2022-09-09T00:01:58;15.47;82.14
66740;DHT22;53653;52.188;8.602;2022-09-09T00:04:29;15.46;82.02
66740;DHT22;53653;52.188;8.602;2022-09-09T00:07:15;15.50;81.82
66740;DHT22;53653;52.188;8.602;2022-09-09T00:18:32;15.63;81.66
66740;DHT22;53653;52.188;8.602;2022-09-09T00:21:12;15.62;81.55
66740;DHT22;53653;52.188;8.602;2022-09-09T00:23:39;15.71;81.03
66740;DHT22;53653;52.188;8.602;2022-09-09T00:26:14;15.70;81.41
66740;DHT22;53653;52.188;8.602;2022-09-09T00:28:48;15.69;81.16
66740;DHT22;53653;52.188;8.602;2022-09-09T00:31:20;15.64;81.42
66740;DHT22;53653;52.188;8.602;2022-09-09T00:33:49;15.63;81.46
66740;DHT22;53653;52.188;8.602;2022-09-09T00:36:18;15.59;81.89
66740;DHT22;53653;52.188;8.602;2022-09-09T00:38:57;15.62;81.93
66740;DHT22;53653;52.188;8.602;2022-09-09T00:41:51;15.63;81.87
66740;DHT22;53653;52.188;8.602;2022-09-09T00:44:35;15.63;81.60
66740;DHT22;53653;52.188;8.602;2022-09-09T00:58:10;15.69;81.14
66740;DHT22;53653;52.188;8.602;2022-09-09T01:00:43;15.74;81.06
66740;DHT22;53653;52.188;8.602;2022-09-09T01:03:30;15.70;81.43
66740;DHT22;53653;52.188;8.602;2022-09-09T01:11:24;15.80;81.28
66740;DHT22;53653;52.188;8.602;2022-09-09T01:13:58;15.83;81.32
66740;DHT22;53653;52.188;8.602;2022-09-09T01:16:26;15.84;81.34
66740;DHT22;53653;52.188;8.602;2022-09-09T01:18:54;15.86;81.22
66740;DHT22;53653;52.188;8.602;2022-09-09T01:26:44;15.86;81.24
66740;DHT22;53653;52.188;8.602;2022-09-09T01:29:12;15.83;81.26
66740;DHT22;53653;52.188;8.602;2022-09-09T01:31:59;15.81;81.44
66740;DHT22;53653;52.188;8.602;2022-09-09T01:34:38;15.81;81.77
66740;DHT22;53653;52.188;8.602;2022-09-09T01:37:08;15.80;81.72
66740;DHT22;53653;52.188;8.602;2022-09-09T01:39:37;15.77;81.80
66740;DHT22;53653;52.188;8.602;2022-09-09T01:42:04;15.73;82.21
66740;DHT22;53653;52.188;8.602;2022-09-09T01:44:31;15.70;82.36
66740;DHT22;53653;52.188;8.602;2022-09-09T01:46:57;15.69;82.54
66740;DHT22;53653;52.188;8.602;2022-09-09T01:49:23;15.67;82.69
66740;DHT22;53653;52.188;8.602;2022-09-09T01:51:52;15.70;82.48
66740;DHT22;53653;52.188;8.602;2022-09-09T01:54:20;15.70;82.84
66740;DHT22;53653;52.188;8.602;2022-09-09T02:02:18;15.54;83.48
66740;DHT22;53653;52.188;8.602;2022-09-09T02:04:48;15.56;84.59
66740;DHT22;53653;52.188;8.602;2022-09-09T02:07:18;15.57;83.58
66740;DHT22;53653;52.188;8.602;2022-09-09T02:09:47;15.54;83.54
66740;DHT22;53653;52.188;8.602;2022-09-09T02:12:18;15.47;83.91
66740;DHT22;53653;52.188;8.602;2022-09-09T02:14:52;15.50;83.84
66740;DHT22;53653;52.188;8.602;2022-09-09T02:17:28;15.54;83.38
66740;DHT22;53653;52.188;8.602;2022-09-09T02:19:59;15.54;83.35
66740;DHT22;53653;52.188;8.602;2022-09-09T02:22:30;15.62;83.24
66740;DHT22;53653;52.188;8.602;2022-09-09T02:24:58;15.64;83.01
66740;DHT22;53653;52.188;8.602;2022-09-09T02:27:25;15.63;82.85
66740;DHT22;53653;52.188;8.602;2022-09-09T02:29:51;15.64;82.70
66740;DHT22;53653;52.188;8.602;2022-09-09T02:32:22;15.71;82.18
66740;DHT22;53653;52.188;8.602;2022-09-09T02:34:56;15.70;82.10
66740;DHT22;53653;52.188;8.602;2022-09-09T02:37:26;15.73;81.97
66740;DHT22;53653;52.188;8.602;2022-09-09T02:39:54;15.69;81.99
66740;DHT22;53653;52.188;8.602;2022-09-09T02:42:19;15.71;81.96
66740;DHT22;53653;52.188;8.602;2022-09-09T02:44:45;15.69;81.94
66740;DHT22;53653;52.188;8.602;2022-09-09T02:50:02;15.69;81.93
66740;DHT22;53653;52.188;8.602;2022-09-09T02:55:19;15.66;82.15
66740;DHT22;53653;52.188;8.602;2022-09-09T02:57:47;15.66;82.18
66740;DHT22;53653;52.188;8.602;2022-09-09T03:00:13;15.67;82.20
66740;DHT22;53653;52.188;8.602;2022-09-09T03:02:38;15.73;82.09
66740;DHT22;53653;52.188;8.602;2022-09-09T03:05:05;15.74;82.23
66740;DHT22;53653;52.188;8.602;2022-09-09T03:07:31;15.73;82.11
66740;DHT22;53653;52.188;8.602;2022-09-09T03:09:56;15.76;82.11
66740;DHT22;53653;52.188;8.602;2022-09-09T03:12:21;15.80;81.95
66740;DHT22;53653;52.188;8.602;2022-09-09T03:14:47;15.80;81.90
66740;DHT22;53653;52.188;8.602;2022-09-09T03:17:12;15.81;81.79
66740;DHT22;53653;52.188;8.602;2022-09-09T03:19:38;15.76;81.95
66740;DHT22;53653;52.188;8.602;2022-09-09T03:22:03;15.79;81.95
66740;DHT22;53653;52.188;8.602;2022-09-09T03:24:29;15.73;82.01
66740;DHT22;53653;52.188;8.602;2022-09-09T03:26:55;15.74;81.90
66740;DHT22;53653;52.188;8.602;2022-09-09T03:29:21;15.76;81.95
66740;DHT22;53653;52.188;8.602;2022-09-09T03:31:46;15.70;82.02
66740;DHT22;53653;52.188;8.602;2022-09-09T03:34:12;15.71;82.29
66740;DHT22;53653;52.188;8.602;2022-09-09T03:36:39;15.73;82.36
66740;DHT22;53653;52.188;8.602;2022-09-09T03:39:04;15.62;82.94
66740;DHT22;53653;52.188;8.602;2022-09-09T03:41:30;15.59;83.27
66740;DHT22;53653;52.188;8.602;2022-09-09T03:43:55;15.53;83.51
66740;DHT22;53653;52.188;8.602;2022-09-09T03:46:23;15.49;83.61
66740;DHT22;53653;52.188;8.602;2022-09-09T03:48:49;15.47;83.98
66740;DHT22;53653;52.188;8.602;2022-09-09T03:51:15;15.42;84.15
66740;DHT22;53653;52.188;8.602;2022-09-09T03:53:41;15.42;84.45
66740;DHT22;53653;52.188;8.602;2022-09-09T03:56:08;15.40;84.74
66740;DHT22;53653;52.188;8.602;2022-09-09T03:58:35;15.36;84.64
66740;DHT22;53653;52.188;8.602;2022-09-09T04:01:09;15.36;84.42
66740;DHT22;53653;52.188;8.602;2022-09-09T04:03:35;15.38;84.29
66740;DHT22;53653;52.188;8.602;2022-09-09T04:06:02;15.36;84.41
66740;DHT22;53653;52.188;8.602;2022-09-09T04:08:28;15.33;84.60
66740;DHT22;53653;52.188;8.602;2022-09-09T04:10:56;15.36;84.62
66740;DHT22;53653;52.188;8.602;2022-09-09T04:13:23;15.35;84.52
66740;DHT22;53653;52.188;8.602;2022-09-09T04:15:57;15.38;84.79
66740;DHT22;53653;52.188;8.602;2022-09-09T04:18:23;15.39;84.77
66740;DHT22;53653;52.188;8.602;2022-09-09T04:20:50;15.36;85.00
66740;DHT22;53653;52.188;8.602;2022-09-09T04:23:16;15.32;85.12
66740;DHT22;53653;52.188;8.602;2022-09-09T04:25:54;15.31;85.29
66740;DHT22;53653;52.188;8.602;2022-09-09T04:28:22;15.33;85.23
66740;DHT22;53653;52.188;8.602;2022-09-09T04:30:47;15.35;84.94
66740;DHT22;53653;52.188;8.602;2022-09-09T04:33:15;15.39;85.04
66740;DHT22;53653;52.188;8.602;2022-09-09T04:35:45;15.39;85.04
66740;DHT22;53653;52.188;8.602;2022-09-09T04:38:11;15.42;85.08
66740;DHT22;53653;52.188;8.602;2022-09-09T04:40:36;15.43;85.13
66740;DHT22;53653;52.188;8.602;2022-09-09T04:43:02;15.46;84.94
66740;DHT22;53653;52.188;8.602;2022-09-09T04:45:31;15.49;84.79
66740;DHT22;53653;52.188;8.602;2022-09-09T04:47:56;15.50;84.88
66740;DHT22;53653;52.188;8.602;2022-09-09T04:50:22;15.54;84.80
66740;DHT22;53653;52.188;8.602;2022-09-09T04:52:47;15.59;84.79
66740;DHT22;53653;52.188;8.602;2022-09-09T04:55:13;15.59;84.78
66740;DHT22;53653;52.188;8.602;2022-09-09T04:57:40;15.62;84.81
66740;DHT22;53653;52.188;8.602;2022-09-09T05:00:05;15.62;84.72
66740;DHT22;53653;52.188;8.602;2022-09-09T05:02:31;15.63;84.95
66740;DHT22;53653;52.188;8.602;2022-09-09T05:04:57;15.62;84.98
66740;DHT22;53653;52.188;8.602;2022-09-09T05:07:23;15.66;84.92
66740;DHT22;53653;52.188;8.602;2022-09-09T05:09:48;15.63;85.02
66740;DHT22;53653;52.188;8.602;2022-09-09T05:12:17;15.63;85.07
66740;DHT22;53653;52.188;8.602;2022-09-09T05:14:43;15.62;85.23
66740;DHT22;53653;52.188;8.602;2022-09-09T05:17:09;15.62;85.19
66740;DHT22;53653;52.188;8.602;2022-09-09T05:19:35;15.62;85.19
66740;DHT22;53653;52.188;8.602;2022-09-09T05:22:01;15.67;85.03
66740;DHT22;53653;52.188;8.602;2022-09-09T05:24:26;15.66;85.06
66740;DHT22;53653;52.188;8.602;2022-09-09T05:26:52;15.60;85.33
66740;DHT22;53653;52.188;8.602;2022-09-09T05:29:17;15.62;85.42
66740;DHT22;53653;52.188;8.602;2022-09-09T05:31:44;15.62;85.42
66740;DHT22;53653;52.188;8.602;2022-09-09T05:34:10;15.60;85.56
66740;DHT22;53653;52.188;8.602;2022-09-09T05:36:36;15.62;85.45
66740;DHT22;53653;52.188;8.602;2022-09-09T05:39:01;15.66;85.25
66740;DHT22;53653;52.188;8.602;2022-09-09T05:41:26;15.71;85.26
66740;DHT22;53653;52.188;8.602;2022-09-09T05:43:53;15.76;85.07
66740;DHT22;53653;52.188;8.602;2022-09-09T05:46:21;15.81;84.92
66740;DHT22;53653;52.188;8.602;2022-09-09T05:48:48;15.84;84.83
66740;DHT22;53653;52.188;8.602;2022-09-09T05:51:18;15.91;84.65
66740;DHT22;53653;52.188;8.602;2022-09-09T05:53:45;16.01;84.56
66740;DHT22;53653;52.188;8.602;2022-09-09T05:56:18;16.04;84.62
66740;DHT22;53653;52.188;8.602;2022-09-09T05:58:45;16.02;84.85
66740;DHT22;53653;52.188;8.602;2022-09-09T06:03:44;16.10;84.62
66740;DHT22;53653;52.188;8.602;2022-09-09T06:06:12;16.07;84.68
66740;DHT22;53653;52.188;8.602;2022-09-09T06:08:40;16.25;84.30
66740;DHT22;53653;52.188;8.602;2022-09-09T06:11:12;16.33;83.98
66740;DHT22;53653;52.188;8.602;2022-09-09T06:13:38;16.59;82.84
66740;DHT22;53653;52.188;8.602;2022-09-09T06:16:15;16.70;82.47
66740;DHT22;53653;52.188;8.602;2022-09-09T06:18:42;16.81;81.80
66740;DHT22;53653;52.188;8.602;2022-09-09T06:21:19;16.76;82.30
66740;DHT22;53653;52.188;8.602;2022-09-09T06:23:45;16.86;82.07
66740;DHT22;53653;52.188;8.602;2022-09-09T06:28:38;17.64;79.82
66740;DHT22;53653;52.188;8.602;2022-09-09T06:31:06;17.96;78.89
66740;DHT22;53653;52.188;8.602;2022-09-09T06:33:37;17.78;79.23
66740;DHT22;53653;52.188;8.602;2022-09-09T06:36:04;17.66;80.88
66740;DHT22;53653;52.188;8.602;2022-09-09T06:38:30;17.64;79.83
66740;DHT22;53653;52.188;8.602;2022-09-09T06:40:58;17.56;80.27
66740;DHT22;53653;52.188;8.602;2022-09-09T06:43:28;17.65;80.04
66740;DHT22;53653;52.188;8.602;2022-09-09T06:45:58;17.79;79.47
66740;DHT22;53653;52.188;8.602;2022-09-09T06:48:25;18.10;78.57
66740;DHT22;53653;52.188;8.602;2022-09-09T06:51:15;18.33;77.42
66740;DHT22;53653;52.188;8.602;2022-09-09T06:53:42;18.26;78.04
66740;DHT22;53653;52.188;8.602;2022-09-09T06:58:40;18.34;77.27
66740;DHT22;53653;52.188;8.602;2022-09-09T07:01:14;18.40;77.25
66740;DHT22;53653;52.188;8.602;2022-09-09T07:03:41;18.37;77.09
66740;DHT22;53653;52.188;8.602;2022-09-09T07:06:09;18.61;76.88
66740;DHT22;53653;52.188;8.602;2022-09-09T07:08:38;18.81;76.45
66740;DHT22;53653;52.188;8.602;2022-09-09T07:11:05;18.94;74.55
66740;DHT22;53653;52.188;8.602;2022-09-09T07:13:31;18.60;76.41
66740;DHT22;53653;52.188;8.602;2022-09-09T07:16:08;18.33;76.57
66740;DHT22;53653;52.188;8.602;2022-09-09T07:18:33;18.14;77.85
66740;DHT22;53653;52.188;8.602;2022-09-09T07:21:00;18.23;77.68
66740;DHT22;53653;52.188;8.602;2022-09-09T07:23:27;18.20;77.96
66740;DHT22;53653;52.188;8.602;2022-09-09T07:25:53;18.38;77.61
66740;DHT22;53653;52.188;8.602;2022-09-09T07:28:19;18.36;77.90
66740;DHT22;53653;52.188;8.602;2022-09-09T07:30:53;18.36;77.50
66740;DHT22;53653;52.188;8.602;2022-09-09T07:33:19;18.34;77.41
66740;DHT22;53653;52.188;8.602;2022-09-09T07:35:45;18.30;76.50
66740;DHT22;53653;52.188;8.602;2022-09-09T07:38:11;18.30;76.45
66740;DHT22;53653;52.188;8.602;2022-09-09T07:40:36;18.40;76.35
66740;DHT22;53653;52.188;8.602;2022-09-09T07:43:02;18.37;76.05
66740;DHT22;53653;52.188;8.602;2022-09-09T07:45:27;18.41;75.78
66740;DHT22;53653;52.188;8.602;2022-09-09T07:47:58;18.62;75.33
66740;DHT22;53653;52.188;8.602;2022-09-09T07:50:24;18.85;74.94
66740;DHT22;53653;52.188;8.602;2022-09-09T07:52:51;19.12;73.57
66740;DHT22;53653;52.188;8.602;2022-09-09T07:55:16;19.12;72.63
66740;DHT22;53653;52.188;8.602;2022-09-09T07:57:42;19.23;72.65
66740;DHT22;53653;52.188;8.602;2022-09-09T08:00:08;19.31;71.54
66740;DHT22;53653;52.188;8.602;2022-09-09T08:02:35;19.26;71.96
66740;DHT22;53653;52.188;8.602;2022-09-09T08:05:01;19.19;72.28
66740;DHT22;53653;52.188;8.602;2022-09-09T08:07:26;19.33;71.86
66740;DHT22;53653;52.188;8.602;2022-09-09T08:09:52;19.31;72.14
66740;DHT22;53653;52.188;8.602;2022-09-09T08:12:17;19.18;72.41
66740;DHT22;53653;52.188;8.602;2022-09-09T08:14:43;19.43;72.43
66740;DHT22;53653;52.188;8.602;2022-09-09T08:17:08;19.57;71.81
66740;DHT22;53653;52.188;8.602;2022-09-09T08:19:34;19.56;70.74
66740;DHT22;53653;52.188;8.602;2022-09-09T08:22:01;19.45;71.29
66740;DHT22;53653;52.188;8.602;2022-09-09T08:24:27;19.53;71.22
66740;DHT22;53653;52.188;8.602;2022-09-09T08:26:53;19.50;70.52
66740;DHT22;53653;52.188;8.602;2022-09-09T08:29:19;19.64;70.19
66740;DHT22;53653;52.188;8.602;2022-09-09T08:31:50;19.87;70.26
66740;DHT22;53653;52.188;8.602;2022-09-09T08:34:17;20.08;69.42
66740;DHT22;53653;52.188;8.602;2022-09-09T08:36:46;20.35;68.02
66740;DHT22;53653;52.188;8.602;2022-09-09T08:39:14;20.74;67.15
66740;DHT22;53653;52.188;8.602;2022-09-09T08:44:39;20.86;66.83
66740;DHT22;53653;52.188;8.602;2022-09-09T08:47:19;20.81;67.56
66740;DHT22;53653;52.188;8.602;2022-09-09T08:52:27;20.72;67.23
66740;DHT22;53653;52.188;8.602;2022-09-09T08:54:57;20.84;66.29
66740;DHT22;53653;52.188;8.602;2022-09-09T08:57:27;21.58;65.30
66740;DHT22;53653;52.188;8.602;2022-09-09T08:59:55;21.56;64.37
66740;DHT22;53653;52.188;8.602;2022-09-09T09:07:43;22.03;61.92
66740;DHT22;53653;52.188;8.602;2022-09-09T09:10:28;21.78;62.85
66740;DHT22;53653;52.188;8.602;2022-09-09T09:12:57;22.24;62.53
66740;DHT22;53653;52.188;8.602;2022-09-09T09:15:25;21.92;62.97
66740;DHT22;53653;52.188;8.602;2022-09-09T09:17:50;21.69;63.59
66740;DHT22;53653;52.188;8.602;2022-09-09T09:20:18;21.21;64.35
66740;DHT22;53653;52.188;8.602;2022-09-09T09:22:51;20.86;65.34
66740;DHT22;53653;52.188;8.602;2022-09-09T09:25:21;20.57;65.74
66740;DHT22;53653;52.188;8.602;2022-09-09T09:28:00;20.15;66.89
66740;DHT22;53653;52.188;8.602;2022-09-09T09:30:40;20.22;67.81
66740;DHT22;53653;52.188;8.602;2022-09-09T09:35:54;20.19;68.08
66740;DHT22;53653;52.188;8.602;2022-09-09T09:40:55;19.98;68.66
66740;DHT22;53653;52.188;8.602;2022-09-09T09:43:30;19.91;69.17
66740;DHT22;53653;52.188;8.602;2022-09-09T09:45:56;19.71;70.82
66740;DHT22;53653;52.188;8.602;2022-09-09T09:48:26;19.66;71.61
66740;DHT22;53653;52.188;8.602;2022-09-09T09:50:54;19.53;72.30
66740;DHT22;53653;52.188;8.602;2022-09-09T09:53:24;19.40;72.83
66740;DHT22;53653;52.188;8.602;2022-09-09T09:55:55;19.37;73.30
66740;DHT22;53653;52.188;8.602;2022-09-09T09:58:21;19.51;74.53
66740;DHT22;53653;52.188;8.602;2022-09-09T10:00:51;20.15;71.90
66740;DHT22;53653;52.188;8.602;2022-09-09T10:03:32;21.28;70.46
66740;DHT22;53653;52.188;8.602;2022-09-09T10:06:03;22.30;66.36
66740;DHT22;53653;52.188;8.602;2022-09-09T10:08:28;22.31;67.14
66740;DHT22;53653;52.188;8.602;2022-09-09T10:19:33;23.97;63.63
66740;DHT22;53653;52.188;8.602;2022-09-09T10:22:26;22.24;66.39
66740;DHT22;53653;52.188;8.602;2022-09-09T10:33:10;20.45;69.51
66740;DHT22;53653;52.188;8.602;2022-09-09T10:41:55;21.72;66.48
66740;DHT22;53653;52.188;8.602;2022-09-09T10:57:08;22.18;60.45
66740;DHT22;53653;52.188;8.602;2022-09-09T10:59:44;21.92;60.31
66740;DHT22;53653;52.188;8.602;2022-09-09T11:02:29;21.62;60.38
66740;DHT22;53653;52.188;8.602;2022-09-09T11:07:31;22.68;56.62
66740;DHT22;53653;52.188;8.602;2022-09-09T11:10:03;23.34;55.06
66740;DHT22;53653;52.188;8.602;2022-09-09T11:12:35;23.82;54.27
66740;DHT22;53653;52.188;8.602;2022-09-09T11:15:35;23.12;54.69
66740;DHT22;53653;52.188;8.602;2022-09-09T11:18:04;22.57;55.76
66740;DHT22;53653;52.188;8.602;2022-09-09T11:20:31;22.24;56.65
66740;DHT22;53653;52.188;8.602;2022-09-09T11:23:10;22.76;55.12
66740;DHT22;53653;52.188;8.602;2022-09-09T11:25:43;23.39;53.72
66740;DHT22;53653;52.188;8.602;2022-09-09T11:34:25;24.00;53.00
66740;DHT22;53653;52.188;8.602;2022-09-09T11:37:02;24.33;51.59
66740;DHT22;53653;52.188;8.602;2022-09-09T11:42:22;23.33;54.17
66740;DHT22;53653;52.188;8.602;2022-09-09T11:44:49;23.00;53.76
66740;DHT22;53653;52.188;8.602;2022-09-09T11:47:29;23.06;53.56
66740;DHT22;53653;52.188;8.602;2022-09-09T11:50:10;22.68;54.82
66740;DHT22;53653;52.188;8.602;2022-09-09T11:52:46;23.37;54.01
66740;DHT22;53653;52.188;8.602;2022-09-09T11:55:29;24.04;52.23
66740;DHT22;53653;52.188;8.602;2022-09-09T11:58:00;24.16;50.99
66740;DHT22;53653;52.188;8.602;2022-09-09T12:00:39;24.08;51.44
66740;DHT22;53653;52.188;8.602;2022-09-09T12:05:53;23.20;52.11
66740;DHT22;53653;52.188;8.602;2022-09-09T12:08:28;23.54;51.55
66740;DHT22;53653;52.188;8.602;2022-09-09T12:10:59;23.19;52.21
66740;DHT22;53653;52.188;8.602;2022-09-09T12:13:28;23.92;51.03
66740;DHT22;53653;52.188;8.602;2022-09-09T12:15:58;24.46;51.77
66740;DHT22;53653;52.188;8.602;2022-09-09T12:18:35;24.71;49.55
66740;DHT22;53653;52.188;8.602;2022-09-09T12:26:34;23.63;50.63
66740;DHT22;53653;52.188;8.602;2022-09-09T12:34:43;23.26;51.83
66740;DHT22;53653;52.188;8.602;2022-09-09T12:39:45;24.19;49.39
66740;DHT22;53653;52.188;8.602;2022-09-09T12:42:17;24.44;49.61
66740;DHT22;53653;52.188;8.602;2022-09-09T12:44:57;23.31;51.04
66740;DHT22;53653;52.188;8.602;2022-09-09T12:47:45;22.67;50.75
66740;DHT22;53653;52.188;8.602;2022-09-09T12:50:33;22.51;51.77
66740;DHT22;53653;52.188;8.602;2022-09-09T12:53:06;22.40;50.95
66740;DHT22;53653;52.188;8.602;2022-09-09T12:55:35;22.28;51.23
66740;DHT22;53653;52.188;8.602;2022-09-09T12:58:02;22.21;51.10
66740;DHT22;53653;52.188;8.602;2022-09-09T13:00:33;22.21;51.76
66740;DHT22;53653;52.188;8.602;2022-09-09T13:03:00;22.27;50.75
66740;DHT22;53653;52.188;8.602;2022-09-09T13:08:04;22.03;51.76
66740;DHT22;53653;52.188;8.602;2022-09-09T13:10:35;22.14;52.70
66740;DHT22;53653;52.188;8.602;2022-09-09T13:13:04;22.27;53.98
66740;DHT22;53653;52.188;8.602;2022-09-09T13:15:30;22.28;54.76
66740;DHT22;53653;52.188;8.602;2022-09-09T13:17:58;22.36;54.44
66740;DHT22;53653;52.188;8.602;2022-09-09T13:20:26;22.37;52.85
66740;DHT22;53653;52.188;8.602;2022-09-09T13:22:53;22.41;52.91
66740;DHT22;53653;52.188;8.602;2022-09-09T13:25:27;22.31;53.96
66740;DHT22;53653;52.188;8.602;2022-09-09T13:28:20;22.34;55.85
66740;DHT22;53653;52.188;8.602;2022-09-09T13:30:56;22.34;58.30
66740;DHT22;53653;52.188;8.602;2022-09-09T13:33:32;22.67;58.89
66740;DHT22;53653;52.188;8.602;2022-09-09T13:36:06;22.84;60.76
66740;DHT22;53653;52.188;8.602;2022-09-09T13:38:36;22.92;60.44
66740;DHT22;53653;52.188;8.602;2022-09-09T13:41:09;23.42;60.81
66740;DHT22;53653;52.188;8.602;2022-09-09T13:43:43;23.39;58.39
66740;DHT22;53653;52.188;8.602;2022-09-09T13:46:25;23.43;56.84
66740;DHT22;53653;52.188;8.602;2022-09-09T13:48:57;23.12;57.41
66740;DHT22;53653;52.188;8.602;2022-09-09T13:51:33;22.73;57.96
66740;DHT22;53653;52.188;8.602;2022-09-09T13:54:00;22.09;59.84
66740;DHT22;53653;52.188;8.602;2022-09-09T13:56:27;22.22;59.66
66740;DHT22;53653;52.188;8.602;2022-09-09T13:58:52;22.30;55.33
66740;DHT22;53653;52.188;8.602;2022-09-09T14:01:18;22.47;53.03
66740;DHT22;53653;52.188;8.602;2022-09-09T14:03:43;22.64;53.09
66740;DHT22;53653;52.188;8.602;2022-09-09T14:06:10;22.89;52.18
66740;DHT22;53653;52.188;8.602;2022-09-09T14:08:36;22.69;51.49
66740;DHT22;53653;52.188;8.602;2022-09-09T14:11:05;22.58;50.41
66740;DHT22;53653;52.188;8.602;2022-09-09T14:13:30;22.62;50.24
66740;DHT22;53653;52.188;8.602;2022-09-09T14:15:56;22.61;49.14
66740;DHT22;53653;52.188;8.602;2022-09-09T14:18:22;23.02;48.30
66740;DHT22;53653;52.188;8.602;2022-09-09T14:20:48;23.09;48.87
66740;DHT22;53653;52.188;8.602;2022-09-09T14:23:15;22.98;50.32
66740;DHT22;53653;52.188;8.602;2022-09-09T14:25:42;23.02;47.70
66740;DHT22;53653;52.188;8.602;2022-09-09T14:28:12;23.23;48.35
66740;DHT22;53653;52.188;8.602;2022-09-09T14:30:39;23.37;47.18
66740;DHT22;53653;52.188;8.602;2022-09-09T14:33:06;23.61;47.17
66740;DHT22;53653;52.188;8.602;2022-09-09T14:35:32;23.79;46.75
66740;DHT22;53653;52.188;8.602;2022-09-09T14:37:58;23.85;46.53
66740;DHT22;53653;52.188;8.602;2022-09-09T14:40:25;23.47;47.25
66740;DHT22;53653;52.188;8.602;2022-09-09T14:42:52;23.10;48.42
66740;DHT22;53653;52.188;8.602;2022-09-09T14:45:17;22.92;49.60
66740;DHT22;53653;52.188;8.602;2022-09-09T14:47:43;22.75;50.81
66740;DHT22;53653;52.188;8.602;2022-09-09T14:50:08;22.55;50.97
66740;DHT22;53653;52.188;8.602;2022-09-09T14:52:34;22.49;51.15
66740;DHT22;53653;52.188;8.602;2022-09-09T14:54:59;22.48;51.86
66740;DHT22;53653;52.188;8.602;2022-09-09T14:57:25;22.49;51.56
66740;DHT22;53653;52.188;8.602;2022-09-09T14:59:50;22.30;52.37
66740;DHT22;53653;52.188;8.602;2022-09-09T15:02:15;22.25;52.18
66740;DHT22;53653;52.188;8.602;2022-09-09T15:04:41;22.11;53.51
66740;DHT22;53653;52.188;8.602;2022-09-09T15:07:07;21.66;55.67
66740;DHT22;53653;52.188;8.602;2022-09-09T15:09:32;21.32;57.16
66740;DHT22;53653;52.188;8.602;2022-09-09T15:11:58;21.24;59.11
66740;DHT22;53653;52.188;8.602;2022-09-09T15:14:23;21.07;59.86
66740;DHT22;53653;52.188;8.602;2022-09-09T15:16:48;21.04;60.42
66740;DHT22;53653;52.188;8.602;2022-09-09T15:19:14;21.03;60.56
66740;DHT22;53653;52.188;8.602;2022-09-09T15:21:39;21.10;60.63
66740;DHT22;53653;52.188;8.602;2022-09-09T15:24:05;21.14;59.92
66740;DHT22;53653;52.188;8.602;2022-09-09T15:26:32;21.17;59.89
66740;DHT22;53653;52.188;8.602;2022-09-09T15:28:58;21.22;59.79
66740;DHT22;53653;52.188;8.602;2022-09-09T15:31:29;21.30;59.45
66740;DHT22;53653;52.188;8.602;2022-09-09T15:34:03;21.37;59.34
66740;DHT22;53653;52.188;8.602;2022-09-09T15:36:34;21.42;59.01
66740;DHT22;53653;52.188;8.602;2022-09-09T15:39:00;21.34;59.05
66740;DHT22;53653;52.188;8.602;2022-09-09T15:41:26;21.34;59.30
66740;DHT22;53653;52.188;8.602;2022-09-09T15:43:53;21.35;59.74
66740;DHT22;53653;52.188;8.602;2022-09-09T15:48:58;21.49;59.48
66740;DHT22;53653;52.188;8.602;2022-09-09T15:51:25;21.61;58.38
66740;DHT22;53653;52.188;8.602;2022-09-09T15:54:00;21.67;58.21
66740;DHT22;53653;52.188;8.602;2022-09-09T15:56:27;21.76;57.81
66740;DHT22;53653;52.188;8.602;2022-09-09T15:58:55;21.76;57.62
66740;DHT22;53653;52.188;8.602;2022-09-09T16:01:20;21.83;56.96
66740;DHT22;53653;52.188;8.602;2022-09-09T16:03:46;21.94;56.75
66740;DHT22;53653;52.188;8.602;2022-09-09T16:06:17;22.04;55.03
66740;DHT22;53653;52.188;8.602;2022-09-09T16:08:45;22.07;55.06
66740;DHT22;53653;52.188;8.602;2022-09-09T16:11:14;22.04;55.48
66740;DHT22;53653;52.188;8.602;2022-09-09T16:13:43;21.89;55.74
66740;DHT22;53653;52.188;8.602;2022-09-09T16:16:11;21.80;55.67
66740;DHT22;53653;52.188;8.602;2022-09-09T16:18:45;21.80;54.80
66740;DHT22;53653;52.188;8.602;2022-09-09T16:21:16;21.69;55.35
66740;DHT22;53653;52.188;8.602;2022-09-09T16:23:43;21.52;55.84
66740;DHT22;53653;52.188;8.602;2022-09-09T16:26:12;21.53;56.62
66740;DHT22;53653;52.188;8.602;2022-09-09T16:28:38;21.45;56.70
66740;DHT22;53653;52.188;8.602;2022-09-09T16:31:08;21.20;57.28
66740;DHT22;53653;52.188;8.602;2022-09-09T16:33:35;21.14;57.94
66740;DHT22;53653;52.188;8.602;2022-09-09T16:36:09;21.11;57.36
66740;DHT22;53653;52.188;8.602;2022-09-09T16:38:36;21.07;57.60
66740;DHT22;53653;52.188;8.602;2022-09-09T16:41:03;20.97;57.62
66740;DHT22;53653;52.188;8.602;2022-09-09T16:43:30;20.95;58.05
66740;DHT22;53653;52.188;8.602;2022-09-09T16:45:55;20.91;58.09
66740;DHT22;53653;52.188;8.602;2022-09-09T16:48:21;20.87;58.45
66740;DHT22;53653;52.188;8.602;2022-09-09T16:50:46;20.80;58.95
66740;DHT22;53653;52.188;8.602;2022-09-09T16:53:12;20.76;59.19
66740;DHT22;53653;52.188;8.602;2022-09-09T16:55:41;20.70;59.60
66740;DHT22;53653;52.188;8.602;2022-09-09T16:58:09;20.63;59.80
66740;DHT22;53653;52.188;8.602;2022-09-09T17:00:35;20.53;60.21
66740;DHT22;53653;52.188;8.602;2022-09-09T17:03:03;20.52;60.14
66740;DHT22;53653;52.188;8.602;2022-09-09T17:05:29;20.43;60.46
66740;DHT22;53653;52.188;8.602;2022-09-09T17:07:55;20.42;60.68
66740;DHT22;53653;52.188;8.602;2022-09-09T17:10:23;20.25;60.97
66740;DHT22;53653;52.188;8.602;2022-09-09T17:12:49;20.16;61.14
66740;DHT22;53653;52.188;8.602;2022-09-09T17:15:14;20.16;61.33
66740;DHT22;53653;52.188;8.602;2022-09-09T17:17:40;20.09;61.30
66740;DHT22;53653;52.188;8.602;2022-09-09T17:20:08;20.07;61.43
66740;DHT22;53653;52.188;8.602;2022-09-09T17:22:34;19.95;61.70
66740;DHT22;53653;52.188;8.602;2022-09-09T17:25:00;19.91;62.16
66740;DHT22;53653;52.188;8.602;2022-09-09T17:27:25;19.81;62.46
66740;DHT22;53653;52.188;8.602;2022-09-09T17:29:51;19.66;63.20
66740;DHT22;53653;52.188;8.602;2022-09-09T17:32:16;19.51;64.15
66740;DHT22;53653;52.188;8.602;2022-09-09T17:34:43;19.50;64.18
66740;DHT22;53653;52.188;8.602;2022-09-09T17:37:08;19.51;65.83
66740;DHT22;53653;52.188;8.602;2022-09-09T17:39:33;19.19;69.22
66740;DHT22;53653;52.188;8.602;2022-09-09T17:41:59;18.92;72.43
66740;DHT22;53653;52.188;8.602;2022-09-09T17:44:24;18.68;74.03
66740;DHT22;53653;52.188;8.602;2022-09-09T17:46:50;18.29;77.38
66740;DHT22;53653;52.188;8.602;2022-09-09T17:49:16;18.13;77.47
66740;DHT22;53653;52.188;8.602;2022-09-09T17:51:43;18.09;79.13
66740;DHT22;53653;52.188;8.602;2022-09-09T17:54:19;17.92;80.72
66740;DHT22;53653;52.188;8.602;2022-09-09T17:56:46;17.97;79.16